Time;durP1;ratioP1;P1;durP2;ratioP2;P2;SDS_P1;SDS_P2;PMS_P1;PMS_P2;Temp;Humidity;BMP_temperature;BMP_pressure;BME280_temperature;BME280_humidity;BME280_pressure;Samples;Min_cycle;Max_cycle;Signal;HPM_P1;HPM_P2
2021/06/13 00:01:27;;;;;;;4.50;4.03;;;;;;;25.46;43.64;100525.38;5087505;28;20110;-70
2021/06/13 00:03:54;;;;;;;5.20;4.47;;;;;;;25.46;43.69;100526.25;5078776;28;20075;-69
2021/06/13 00:06:21;;;;;;;5.45;4.95;;;;;;;25.47;43.59;100530.56;5084110;28;20036;-69
2021/06/13 00:08:48;;;;;;;8.82;4.47;;;;;;;25.47;43.61;100525.22;5086588;28;20090;-69
2021/06/13 00:11:15;;;;;;;6.00;5.13;;;;;;;25.44;43.65;100522.06;5087218;28;20044;-70
2021/06/13 00:13:43;;;;;;;6.20;4.80;;;;;;;25.45;43.53;100519.22;5089521;28;20036;-70
2021/06/13 00:16:10;;;;;;;4.72;4.32;;;;;;;25.45;43.35;100529.06;5071972;28;20037;-70
2021/06/13 00:18:38;;;;;;;5.63;5.22;;;;;;;25.44;43.54;100522.88;5059008;28;20393;-70
2021/06/13 00:21:05;;;;;;;5.07;4.68;;;;;;;25.41;43.54;100523.22;5062804;28;20403;-70
2021/06/13 00:23:32;;;;;;;7.32;4.82;;;;;;;25.41;43.56;100517.03;5063393;28;20867;-70
2021/06/13 00:26:17;;;;;;;5.88;5.38;;;;;;;25.40;43.42;100507.38;5061979;28;20056;-69
2021/06/13 00:28:43;;;;;;;5.45;4.65;;;;;;;25.38;43.17;100512.88;5062240;28;20173;-69
2021/06/13 00:31:10;;;;;;;10.38;4.40;;;;;;;25.37;43.20;100505.88;5062923;28;20040;-69
2021/06/13 00:33:37;;;;;;;5.20;4.80;;;;;;;25.36;43.21;100501.53;5063232;28;20086;-68
2021/06/13 00:36:04;;;;;;;5.28;4.80;;;;;;;25.36;43.05;100501.53;5064243;28;20066;-68
2021/06/13 00:38:31;;;;;;;5.72;5.22;;;;;;;25.34;42.97;100498.19;5064886;28;20086;-68
2021/06/13 00:40:58;;;;;;;6.10;4.90;;;;;;;25.32;42.93;100490.38;5064346;28;20040;-68
2021/06/13 00:43:25;;;;;;;4.88;4.47;;;;;;;25.31;43.09;100495.88;5062647;28;20102;-68
2021/06/13 00:45:53;;;;;;;6.03;5.43;;;;;;;25.32;42.97;100500.22;5061786;28;20125;-68
2021/06/13 00:48:20;;;;;;;5.20;4.80;;;;;;;25.30;42.92;100500.38;5062431;28;20037;-68
2021/06/13 00:50:50;;;;;;;5.72;5.22;;;;;;;25.34;42.88;100498.19;5064132;28;20143;-68
2021/06/13 00:53:18;;;;;;;5.53;5.05;;;;;;;25.29;43.06;100493.34;5063301;28;20503;-68
2021/06/13 00:55:53;;;;;;;5.10;4.60;;;;;;;25.29;42.77;100492.50;5077221;28;20403;-70
2021/06/13 00:58:21;;;;;;;4.70;4.30;;;;;;;25.27;42.71;100491.88;5061298;28;20419;-70
2021/06/13 01:00:48;;;;;;;7.50;5.15;;;;;;;25.24;42.74;100486.84;5061837;28;20044;-70
2021/06/13 01:03:16;;;;;;;4.80;4.40;;;;;;;25.25;42.79;100496.53;5060009;28;20068;-71
2021/06/13 01:05:44;;;;;;;5.05;4.65;;;;;;;25.23;42.38;100493.19;5059408;28;20052;-71
2021/06/13 01:08:32;;;;;;;5.15;4.63;;;;;;;25.20;42.33;100493.53;5062785;28;20044;-71
2021/06/13 01:11:11;;;;;;;5.00;4.60;;;;;;;25.17;42.27;100492.00;5065355;28;20055;-71
2021/06/13 01:13:39;;;;;;;6.93;4.45;;;;;;;25.17;42.06;100489.34;5063568;28;21690;-71
2021/06/13 01:16:29;;;;;;;5.18;4.03;;;;;;;25.15;41.98;100487.84;5060513;28;20056;-71
2021/06/13 01:19:01;;;;;;;5.25;4.15;;;;;;;25.16;41.85;100489.53;5060260;28;20393;-71
2021/06/13 01:21:34;;;;;;;9.00;4.75;;;;;;;25.15;41.81;100485.19;5079334;28;20052;-71
2021/06/13 01:24:15;;;;;;;6.43;4.18;;;;;;;25.12;41.72;100485.50;5063029;28;20383;-71
2021/06/13 01:26:57;;;;;;;9.63;4.60;;;;;;;25.11;41.75;100478.50;5057277;28;20043;-71
2021/06/13 01:29:38;;;;;;;7.03;4.40;;;;;;;25.10;41.75;100483.00;5072877;28;20044;-71
2021/06/13 01:32:16;;;;;;;5.88;4.43;;;;;;;25.07;41.64;100483.34;5075855;28;20448;-70
2021/06/13 01:34:48;;;;;;;4.95;4.55;;;;;;;25.03;41.55;100474.78;5060561;28;20040;-69
2021/06/13 01:37:24;;;;;;;4.72;4.30;;;;;;;25.04;41.54;100473.81;5074639;28;20037;-69
2021/06/13 01:40:07;;;;;;;5.40;4.90;;;;;;;25.01;41.71;100478.63;5063083;28;20041;-68
2021/06/13 01:42:47;;;;;;;4.75;4.35;;;;;;;25.00;41.72;100467.13;5062982;28;20044;-69
2021/06/13 01:45:19;;;;;;;4.28;3.88;;;;;;;25.00;41.53;100464.47;5063287;28;20051;-69
2021/06/13 01:47:48;;;;;;;4.78;4.38;;;;;;;24.99;41.83;100461.97;5061798;28;20495;-69
2021/06/13 01:50:17;;;;;;;4.72;4.32;;;;;;;24.98;41.59;100446.94;5077836;28;20053;-69
2021/06/13 01:52:48;;;;;;;6.97;4.90;;;;;;;24.96;41.77;100441.78;5044286;28;20090;-69
2021/06/13 01:55:19;;;;;;;4.88;4.47;;;;;;;24.97;41.69;100446.09;5059158;28;20049;-69
2021/06/13 01:57:48;;;;;;;5.78;4.00;;;;;;;24.95;41.69;100448.13;5059427;28;20041;-69
2021/06/13 02:00:25;;;;;;;5.70;4.68;;;;;;;24.96;41.71;100444.44;5059409;28;20045;-70
2021/06/13 02:02:59;;;;;;;5.18;4.78;;;;;;;24.96;41.88;100438.28;5067818;28;20045;-67
2021/06/13 02:05:41;;;;;;;5.35;4.85;;;;;;;24.95;41.75;100440.13;5068264;28;20053;-68
2021/06/13 02:08:10;;;;;;;6.43;5.30;;;;;;;24.94;41.74;100441.13;5066375;28;20044;-68
2021/06/13 02:10:42;;;;;;;5.43;4.93;;;;;;;24.93;41.54;100439.47;5066320;28;20049;-68
2021/06/13 02:13:13;;;;;;;5.18;4.78;;;;;;;24.91;41.36;100438.78;5080513;28;20056;-68
2021/06/13 02:15:44;;;;;;;4.90;4.50;;;;;;;24.92;41.34;100440.44;5066310;28;20036;-69
2021/06/13 02:18:12;;;;;;;4.47;4.07;;;;;;;24.92;41.12;100437.78;5068328;28;20032;-68
2021/06/13 02:20:40;;;;;;;4.57;4.18;;;;;;;24.89;41.37;100447.94;5066610;28;20048;-68
2021/06/13 02:23:07;;;;;;;5.18;4.78;;;;;;;24.87;41.21;100439.25;5067910;28;20041;-69
2021/06/13 02:25:35;;;;;;;7.60;4.68;;;;;;;24.81;41.17;100446.91;5063159;28;20035;-70
2021/06/13 02:28:03;;;;;;;4.88;4.47;;;;;;;24.85;41.21;100443.94;5065881;28;20047;-70
2021/06/13 02:30:39;;;;;;;4.95;4.55;;;;;;;24.84;41.00;100440.44;5065720;28;20064;-69
2021/06/13 02:33:11;;;;;;;4.63;4.00;;;;;;;24.84;40.83;100437.78;5065325;28;20045;-69
2021/06/13 02:35:44;;;;;;;4.70;4.25;;;;;;;24.81;41.20;100438.09;5068237;28;20170;-69
2021/06/13 02:38:15;;;;;;;4.78;3.97;;;;;;;24.80;41.18;100439.09;5067348;28;20051;-70
2021/06/13 02:40:43;;;;;;;4.38;4.07;;;;;;;24.79;41.02;100440.09;5064648;28;20036;-69
2021/06/13 02:43:11;;;;;;;7.28;4.85;;;;;;;24.78;41.15;100441.94;5068181;28;20415;-70
2021/06/13 02:45:42;;;;;;;4.82;4.43;;;;;;;24.76;41.02;100441.25;5067878;28;20064;-68
2021/06/13 02:48:10;;;;;;;6.05;4.80;;;;;;;24.75;41.05;100444.09;5078194;28;20116;-68
2021/06/13 02:50:38;;;;;;;5.05;4.65;;;;;;;24.72;40.97;100441.75;5064430;28;20036;-67
2021/06/13 02:53:32;;;;;;;5.38;4.88;;;;;;;24.71;40.99;100435.56;5065083;28;20482;-67
2021/06/13 02:56:07;;;;;;;6.03;4.32;;;;;;;24.70;41.00;100438.41;5066686;28;20098;-68
2021/06/13 02:58:43;;;;;;;4.72;4.32;;;;;;;24.69;40.64;100439.41;5065950;28;20411;-68
2021/06/13 03:01:13;;;;;;;7.20;4.30;;;;;;;24.66;40.74;100440.59;5065576;28;20067;-67
2021/06/13 03:03:42;;;;;;;5.53;4.00;;;;;;;24.65;40.44;100436.22;5081079;28;20446;-67
2021/06/13 03:06:15;;;;;;;4.25;3.85;;;;;;;24.67;40.54;100444.09;5068319;28;20525;-67
2021/06/13 03:08:43;;;;;;;4.80;4.40;;;;;;;24.64;40.78;100444.41;5062099;28;20063;-67
2021/06/13 03:11:13;;;;;;;4.70;4.30;;;;;;;24.64;40.63;100439.91;5065866;28;20044;-68
2021/06/13 03:13:43;;;;;;;4.55;4.22;;;;;;;24.65;40.71;100446.06;5062924;28;20040;-71
2021/06/13 03:16:12;;;;;;;4.50;4.10;;;;;;;24.62;40.55;100438.41;5060326;28;20051;-71
2021/06/13 03:18:45;;;;;;;4.95;4.35;;;;;;;24.59;40.40;100436.88;5082135;28;20072;-71
2021/06/13 03:21:13;;;;;;;4.50;4.10;;;;;;;24.61;40.06;100442.03;5061473;28;20047;-71
2021/06/13 03:23:42;;;;;;;4.90;4.47;;;;;;;24.59;40.26;100431.56;5061141;28;20047;-71
2021/06/13 03:26:10;;;;;;;5.57;4.13;;;;;;;24.58;40.12;100437.06;5071227;28;20458;-71
2021/06/13 03:28:38;;;;;;;5.95;4.38;;;;;;;24.56;39.87;100432.72;5062003;28;20461;-71
2021/06/13 03:31:09;;;;;;;4.75;4.35;;;;;;;24.54;40.02;100434.69;5061831;28;20467;-71
2021/06/13 03:33:38;;;;;;;4.78;4.15;;;;;;;24.52;39.76;100434.03;5059830;28;20443;-71
2021/06/13 03:36:08;;;;;;;4.50;4.10;;;;;;;24.52;39.66;100426.03;5078546;28;20051;-70
2021/06/13 03:38:36;;;;;;;4.90;4.20;;;;;;;24.52;39.52;100426.03;5066221;28;20037;-71
2021/06/13 03:41:07;;;;;;;5.15;4.45;;;;;;;24.52;39.45;100430.53;5064212;28;20079;-69
2021/06/13 03:43:35;;;;;;;4.53;4.13;;;;;;;24.54;39.74;100428.53;5063281;28;20040;-69
2021/06/13 03:46:03;;;;;;;5.88;4.53;;;;;;;24.53;39.65;100427.72;5063670;28;20040;-69
2021/06/13 03:48:32;;;;;;;4.88;4.47;;;;;;;24.54;39.74;100423.22;5067080;28;20044;-69
2021/06/13 03:50:59;;;;;;;4.15;3.72;;;;;;;24.53;39.88;100433.03;5059994;28;20049;-69
2021/06/13 03:53:26;;;;;;;5.05;4.03;;;;;;;24.52;39.59;100428.72;5062468;28;20041;-69
2021/06/13 03:55:54;;;;;;;7.13;4.43;;;;;;;24.53;39.75;100427.72;5061151;28;20075;-68
2021/06/13 03:58:24;;;;;;;4.18;3.78;;;;;;;24.52;39.54;100427.88;5062764;28;20052;-68
2021/06/13 04:00:55;;;;;;;5.38;4.05;;;;;;;24.54;39.58;100431.22;5063912;28;20043;-68
2021/06/13 04:03:24;;;;;;;4.53;4.13;;;;;;;24.55;39.46;100438.19;5063794;28;20483;-68
2021/06/13 04:05:51;;;;;;;4.45;4.05;;;;;;;24.56;39.24;100447.88;5063955;28;20068;-71
2021/06/13 04:08:20;;;;;;;4.85;4.35;;;;;;;24.42;42.97;100446.66;5066632;28;20120;-71
2021/06/13 04:10:50;;;;;;;6.18;5.50;;;;;;;23.93;45.61;100449.09;5062782;28;20430;-71
2021/06/13 04:13:19;;;;;;;6.93;6.10;;;;;;;23.68;46.64;100448.09;5061769;28;20513;-70
2021/06/13 04:15:46;;;;;;;6.20;5.70;;;;;;;23.73;46.98;100451.13;5061198;28;20047;-68
2021/06/13 04:18:15;;;;;;;8.88;8.00;;;;;;;23.36;48.64;100463.78;5078971;28;20044;-68
2021/06/13 04:20:43;;;;;;;8.43;7.68;;;;;;;23.33;48.51;100464.94;5063110;28;20048;-68
2021/06/13 04:23:14;;;;;;;9.38;8.48;;;;;;;23.49;48.45;100467.72;5065112;28;20045;-68
2021/06/13 04:25:42;;;;;;;8.63;7.82;;;;;;;23.48;48.51;100468.69;5063325;28;20041;-67
2021/06/13 04:28:15;;;;;;;9.80;7.85;;;;;;;23.44;48.79;100471.84;5067823;28;20484;-68
2021/06/13 04:31:06;;;;;;;8.43;7.68;;;;;;;23.57;48.32;100466.94;5062520;28;20047;-67
2021/06/13 04:33:33;;;;;;;9.27;8.27;;;;;;;23.33;48.32;100469.41;5063073;28;20047;-68
2021/06/13 04:36:02;;;;;;;12.93;8.70;;;;;;;23.46;47.96;100468.03;5059547;28;20041;-67
2021/06/13 04:38:29;;;;;;;8.18;7.47;;;;;;;23.68;47.80;100471.22;5058664;28;20068;-67
2021/06/13 04:40:56;;;;;;;8.43;6.95;;;;;;;23.70;47.30;100480.72;5065669;28;20078;-67
2021/06/13 04:43:23;;;;;;;7.68;6.97;;;;;;;23.96;46.52;100478.03;5064806;28;20048;-67
2021/06/13 04:45:50;;;;;;;7.07;6.32;;;;;;;23.89;46.50;100479.66;5058466;28;20065;-67
2021/06/13 04:48:19;;;;;;;10.05;6.57;;;;;;;23.89;46.53;100473.50;5064194;28;20044;-67
2021/06/13 04:50:46;;;;;;;8.40;7.05;;;;;;;23.95;47.40;100475.53;5060652;28;20041;-67
2021/06/13 04:53:25;;;;;;;8.48;7.75;;;;;;;23.91;47.61;100480.34;5063074;28;20380;-67
2021/06/13 04:55:55;;;;;;;8.80;7.82;;;;;;;24.00;47.69;100483.88;5061549;28;20056;-67
2021/06/13 04:58:24;;;;;;;11.80;6.82;;;;;;;23.94;48.05;100480.03;5064254;28;20631;-67
2021/06/13 05:00:52;;;;;;;9.85;7.38;;;;;;;24.02;47.88;100482.75;5062345;28;20036;-67
2021/06/13 05:03:19;;;;;;;9.32;8.52;;;;;;;23.99;48.20;100498.19;5064484;28;20419;-67
2021/06/13 05:05:46;;;;;;;9.30;8.48;;;;;;;23.99;48.18;100499.03;5061804;28;20048;-67
2021/06/13 05:08:13;;;;;;;10.35;9.35;;;;;;;24.18;48.34;100494.47;5062447;28;20573;-67
2021/06/13 05:10:40;;;;;;;10.43;9.52;;;;;;;24.12;49.19;100498.59;5060726;28;20055;-67
2021/06/13 05:13:14;;;;;;;10.93;9.23;;;;;;;24.16;49.38;100499.13;5065455;28;20091;-67
2021/06/13 05:15:41;;;;;;;10.60;9.60;;;;;;;24.22;49.55;100504.66;5059917;28;20037;-67
2021/06/13 05:18:08;;;;;;;9.50;8.70;;;;;;;24.47;48.72;100502.97;5066770;28;20051;-67
2021/06/13 05:20:39;;;;;;;9.63;8.73;;;;;;;24.43;49.25;100514.09;5059312;28;20043;-67
2021/06/13 05:23:06;;;;;;;11.38;10.38;;;;;;;24.54;48.90;100519.16;5061043;28;20043;-66
2021/06/13 05:25:36;;;;;;;11.68;10.63;;;;;;;24.47;49.24;100518.13;5063343;28;20037;-66
2021/06/13 05:28:06;;;;;;;12.65;10.95;;;;;;;24.50;49.34;100526.66;5062250;28;20040;-66
2021/06/13 05:30:34;;;;;;;14.55;10.60;;;;;;;24.64;49.55;100521.69;5062608;28;20098;-66
2021/06/13 05:33:02;;;;;;;11.85;10.85;;;;;;;24.59;49.44;100527.50;5062312;28;20033;-66
2021/06/13 05:35:29;;;;;;;11.43;9.35;;;;;;;24.64;48.49;100524.34;5062194;28;20111;-67
2021/06/13 05:37:55;;;;;;;11.35;10.20;;;;;;;24.81;47.80;100520.75;5067992;28;20096;-66
2021/06/13 05:40:23;;;;;;;14.35;10.02;;;;;;;24.93;47.36;100524.78;5060738;28;20098;-66
2021/06/13 05:42:53;;;;;;;11.48;10.00;;;;;;;25.05;47.20;100531.47;5060579;28;20037;-66
2021/06/13 05:45:24;;;;;;;10.75;9.75;;;;;;;25.20;46.66;100536.22;5061974;28;20119;-67
2021/06/13 05:47:51;;;;;;;10.45;9.45;;;;;;;25.12;45.79;100529.03;5065696;28;20041;-68
2021/06/13 05:50:19;;;;;;;10.32;9.23;;;;;;;25.48;44.94;100532.22;5065075;28;20040;-66
2021/06/13 05:52:46;;;;;;;9.73;8.85;;;;;;;25.51;45.01;100534.56;5067711;28;20531;-67
2021/06/13 05:55:14;;;;;;;9.63;8.73;;;;;;;25.96;44.61;100538.56;5060568;28;20044;-67
2021/06/13 05:57:41;;;;;;;10.95;6.90;;;;;;;26.43;43.14;100537.00;5066133;28;20487;-67
2021/06/13 06:00:28;;;;;;;7.15;5.75;;;;;;;27.01;41.21;100539.22;5077439;28;20044;-69
2021/06/13 06:02:55;;;;;;;10.77;7.30;;;;;;;26.84;39.57;100542.97;5074907;28;20422;-70
2021/06/13 06:05:23;;;;;;;7.97;7.28;;;;;;;27.26;40.63;100545.25;5075384;28;20389;-65
2021/06/13 06:07:51;;;;;;;9.25;7.13;;;;;;;27.66;39.56;100545.97;5068991;28;20090;-67
2021/06/13 06:10:20;;;;;;;8.10;7.30;;;;;;;27.60;39.29;100547.53;5068554;28;20043;-66
2021/06/13 06:12:47;;;;;;;8.35;7.50;;;;;;;27.38;40.08;100556.41;5063414;28;20048;-67
2021/06/13 06:15:16;;;;;;;11.52;6.72;;;;;;;27.09;41.07;100562.44;5065738;28;20033;-66
2021/06/13 06:17:44;;;;;;;11.02;7.20;;;;;;;27.55;40.35;100557.94;5062533;28;20045;-66
2021/06/13 06:20:12;;;;;;;7.30;6.70;;;;;;;27.95;40.08;100558.63;5067055;28;20037;-66
2021/06/13 06:22:40;;;;;;;7.68;5.97;;;;;;;28.68;39.25;100554.34;5062000;28;20106;-68
2021/06/13 06:25:08;;;;;;;6.60;6.00;;;;;;;28.96;38.39;100566.06;5067061;28;20041;-67
2021/06/13 06:27:36;;;;;;;7.22;6.43;;;;;;;29.20;37.42;100574.81;5060581;28;20048;-65
2021/06/13 06:30:05;;;;;;;6.70;5.97;;;;;;;29.56;36.70;100574.75;5064001;28;20052;-67
2021/06/13 06:32:32;;;;;;;5.85;5.35;;;;;;;30.00;36.35;100573.69;5066825;28;20320;-67
2021/06/13 06:34:59;;;;;;;6.03;5.47;;;;;;;30.36;34.87;100570.00;5064879;28;20049;-67
2021/06/13 06:37:26;;;;;;;5.85;4.50;;;;;;;30.92;33.26;100565.34;5063367;28;20037;-68
2021/06/13 06:39:52;;;;;;;7.38;5.50;;;;;;;30.46;33.10;100571.31;5074932;28;20036;-64
2021/06/13 06:42:20;;;;;;;6.22;4.40;;;;;;;30.68;33.24;100565.84;5076264;28;20053;-71
2021/06/13 06:44:53;;;;;;;6.90;4.43;;;;;;;31.28;31.88;100564.25;5075261;28;20080;-68
2021/06/13 06:47:24;;;;;;;6.72;5.00;;;;;;;31.64;31.19;100565.72;5073710;28;20411;-73
2021/06/13 06:49:53;;;;;;;6.25;4.63;;;;;;;31.90;31.13;100562.22;5075395;28;20048;-67
2021/06/13 06:52:20;;;;;;;4.63;4.22;;;;;;;32.26;30.74;100564.47;5082596;28;20379;-68
2021/06/13 06:54:47;;;;;;;4.50;4.07;;;;;;;32.45;29.40;100558.22;5078196;28;20036;-68
2021/06/13 06:57:14;;;;;;;4.65;4.20;;;;;;;32.51;29.56;100565.47;5092929;28;20449;-68
2021/06/13 06:59:41;;;;;;;4.50;4.10;;;;;;;32.60;28.87;100557.97;5088080;28;20154;-69
2021/06/13 07:02:09;;;;;;;5.38;3.83;;;;;;;32.94;28.39;100564.91;5084873;28;20044;-71
2021/06/13 07:04:36;;;;;;;4.82;4.40;;;;;;;32.29;28.63;100575.66;5085987;28;20048;-68
2021/06/13 07:07:03;;;;;;;5.50;4.97;;;;;;;32.38;28.54;100575.44;5077848;28;20043;-70
2021/06/13 07:09:30;;;;;;;5.10;3.90;;;;;;;32.99;28.46;100575.06;5082152;28;20548;-68
2021/06/13 07:11:57;;;;;;;6.28;4.22;;;;;;;32.72;29.24;100577.84;5082745;28;20441;-67
2021/06/13 07:14:24;;;;;;;5.78;3.92;;;;;;;33.58;28.40;100581.97;5092573;28;20230;-68
2021/06/13 07:16:51;;;;;;;6.97;4.43;;;;;;;33.32;28.38;100589.19;5089994;28;20032;-66
2021/06/13 07:19:18;;;;;;;6.03;4.38;;;;;;;33.07;28.54;100574.78;5071364;28;20086;-67
2021/06/13 07:21:45;;;;;;;5.80;4.25;;;;;;;33.35;27.52;100577.94;5074027;28;20037;-65
2021/06/13 07:24:12;;;;;;;5.63;4.18;;;;;;;33.59;26.68;100589.03;5073499;28;20044;-65
2021/06/13 07:26:38;;;;;;;4.63;4.22;;;;;;;33.55;26.16;100580.53;5074030;28;20045;-65
2021/06/13 07:29:05;;;;;;;5.18;4.40;;;;;;;33.47;26.60;100577.28;5074004;28;20091;-65
2021/06/13 07:31:32;;;;;;;4.75;4.22;;;;;;;34.53;25.80;100581.75;5073879;28;20048;-66
2021/06/13 07:33:59;;;;;;;5.47;4.28;;;;;;;34.10;26.29;100586.13;5073845;28;20072;-65
2021/06/13 07:36:26;;;;;;;4.50;3.97;;;;;;;34.48;27.01;100581.63;5074190;28;20066;-66
2021/06/13 07:38:53;;;;;;;4.53;4.13;;;;;;;34.12;27.75;100584.03;5073110;28;20487;-66
2021/06/13 07:41:20;;;;;;;5.90;4.25;;;;;;;34.15;28.10;100588.19;5073333;28;20036;-65
2021/06/13 07:43:47;;;;;;;4.30;3.33;;;;;;;34.17;27.74;100580.66;5073299;28;20056;-66
2021/06/13 07:46:14;;;;;;;4.90;3.72;;;;;;;35.20;26.47;100574.44;5068991;28;20052;-66
2021/06/13 07:48:43;;;;;;;6.00;3.88;;;;;;;35.23;26.57;100582.13;5073870;28;20045;-66
2021/06/13 07:51:10;;;;;;;4.30;3.90;;;;;;;35.05;26.90;100576.72;5069871;28;20074;-66
2021/06/13 07:53:43;;;;;;;4.03;3.70;;;;;;;34.78;27.49;100565.41;5073274;28;20041;-65
2021/06/13 07:56:12;;;;;;;4.63;4.22;;;;;;;35.04;27.15;100566.97;5072044;28;20040;-65
2021/06/13 07:58:39;;;;;;;4.50;3.83;;;;;;;35.20;26.77;100566.31;5073291;28;20132;-64
2021/06/13 08:01:06;;;;;;;6.38;3.90;;;;;;;35.80;26.40;100570.84;5071945;28;20040;-66
2021/06/13 08:03:33;;;;;;;4.57;4.10;;;;;;;35.71;26.16;100570.34;5073182;28;20043;-67
2021/06/13 08:06:00;;;;;;;4.15;3.85;;;;;;;36.05;25.50;100573.31;5073263;28;20464;-67
2021/06/13 08:08:27;;;;;;;13.07;5.45;;;;;;;35.94;25.25;100575.81;5072372;28;20851;-64
2021/06/13 08:10:54;;;;;;;6.65;3.45;;;;;;;35.88;25.36;100571.28;5072315;28;20048;-64
2021/06/13 08:13:21;;;;;;;6.43;4.60;;;;;;;36.35;25.66;100568.59;5072655;28;20098;-64
2021/06/13 08:15:48;;;;;;;5.88;3.95;;;;;;;36.45;25.37;100559.88;5072836;28;20449;-65
2021/06/13 08:18:15;;;;;;;6.50;4.45;;;;;;;36.32;25.55;100568.22;5072868;28;20041;-64
2021/06/13 08:20:42;;;;;;;4.65;4.25;;;;;;;36.16;25.57;100577.91;5072555;28;20037;-64
2021/06/13 08:23:10;;;;;;;7.65;4.07;;;;;;;36.40;25.71;100574.13;5072534;28;20116;-65
2021/06/13 08:25:37;;;;;;;6.47;3.90;;;;;;;36.24;26.32;100574.03;5072978;28;20430;-65
2021/06/13 08:28:04;;;;;;;4.88;4.38;;;;;;;35.71;26.55;100570.34;5072606;28;20037;-64
2021/06/13 08:30:31;;;;;;;4.60;4.18;;;;;;;35.88;25.88;100570.47;5072220;28;20041;-64
2021/06/13 08:32:58;;;;;;;6.72;3.50;;;;;;;36.21;25.08;100569.88;5072043;28;20608;-65
2021/06/13 08:35:26;;;;;;;7.20;3.65;;;;;;;35.95;25.70;100561.16;5069472;28;20060;-64
2021/06/13 08:37:54;;;;;;;13.10;4.28;;;;;;;36.07;25.10;100560.38;5072521;28;20036;-65
2021/06/13 08:40:21;;;;;;;4.07;3.72;;;;;;;35.88;25.12;100565.03;5072096;28;20040;-65
2021/06/13 08:42:48;;;;;;;6.60;3.80;;;;;;;35.50;24.55;100557.34;5072531;28;20069;-65
2021/06/13 08:45:16;;;;;;;6.75;4.18;;;;;;;35.77;25.22;100565.88;5071960;28;20040;-65
2021/06/13 08:47:47;;;;;;;6.47;4.55;;;;;;;35.93;25.20;100560.59;5071943;28;20036;-65
2021/06/13 08:50:13;;;;;;;4.68;3.25;;;;;;;35.69;25.34;100553.50;5071741;28;20037;-66
2021/06/13 08:52:40;;;;;;;4.05;3.67;;;;;;;35.23;26.52;100557.72;5071995;28;20106;-64
2021/06/13 08:55:09;;;;;;;8.35;4.00;;;;;;;35.23;26.72;100557.72;5071943;28;20040;-63
2021/06/13 08:57:36;;;;;;;6.30;3.85;;;;;;;35.01;27.30;100559.31;5069558;28;20086;-64
2021/06/13 09:00:11;;;;;;;3.80;3.47;;;;;;;35.16;27.78;100565.97;5071980;28;20032;-65
2021/06/13 09:02:39;;;;;;;6.93;4.15;;;;;;;34.77;28.33;100558.34;5067939;28;20483;-63
2021/06/13 09:05:09;;;;;;;4.88;4.28;;;;;;;34.54;28.13;100567.16;5071941;28;20041;-66
2021/06/13 09:07:47;;;;;;;4.47;4.07;;;;;;;34.24;28.24;100565.16;5071498;28;20090;-65
2021/06/13 09:10:19;;;;;;;6.47;4.60;;;;;;;33.70;29.33;100561.28;5071309;28;20049;-65
2021/06/13 09:12:48;;;;;;;6.32;4.38;;;;;;;33.82;29.04;100567.63;5071638;28;20044;-65
2021/06/13 09:15:16;;;;;;;4.53;4.13;;;;;;;33.96;29.13;100564.84;5070626;28;20048;-65
2021/06/13 09:17:44;;;;;;;5.55;4.25;;;;;;;33.78;29.07;100561.03;5071591;28;20066;-66
2021/06/13 09:20:18;;;;;;;4.97;4.55;;;;;;;33.51;29.82;100560.41;5070428;28;20083;-65
2021/06/13 09:23:23;;;;;;;10.05;8.63;;;;;;;33.29;29.61;100562.63;5071175;28;20040;-66
2021/06/13 09:26:02;;;;;;;7.50;4.70;;;;;;;33.07;29.94;100567.50;5071080;28;20040;-67
2021/06/13 09:28:35;;;;;;;7.90;5.13;;;;;;;33.02;29.64;100561.09;5071480;28;20037;-68
2021/06/13 09:31:03;;;;;;;5.90;5.10;;;;;;;32.98;29.79;100568.00;5072105;28;20545;-67
2021/06/13 09:33:32;;;;;;;5.00;4.57;;;;;;;33.11;30.13;100560.63;5070318;28;20693;-68
2021/06/13 09:36:04;;;;;;;4.75;4.35;;;;;;;33.07;29.72;100558.59;5070212;28;20040;-66
2021/06/13 09:38:34;;;;;;;5.45;4.85;;;;;;;33.18;29.96;100555.19;5071291;28;20037;-68
2021/06/13 09:41:00;;;;;;;6.60;3.95;;;;;;;33.02;29.98;100551.13;5072346;28;20098;-67
2021/06/13 09:43:36;;;;;;;10.88;4.95;;;;;;;33.10;30.14;100556.28;5070477;28;20048;-67
2021/06/13 09:46:07;;;;;;;6.07;4.32;;;;;;;33.19;30.06;100547.94;5068595;28;20040;-68
2021/06/13 09:49:07;;;;;;;6.80;5.20;;;;;;;33.08;30.47;100549.47;5071548;28;20427;-66
2021/06/13 09:51:40;;;;;;;6.70;4.75;;;;;;;32.94;30.16;100548.69;5067349;28;20040;-66
2021/06/13 09:54:11;;;;;;;4.80;4.40;;;;;;;32.73;30.71;100551.69;5071254;28;20036;-66
2021/06/13 09:56:41;;;;;;;7.00;4.78;;;;;;;32.70;30.01;100541.28;5068500;28;20491;-66
2021/06/13 09:59:15;;;;;;;5.45;4.38;;;;;;;32.68;30.86;100541.50;5071219;28;20041;-65
2021/06/13 10:01:53;;;;;;;5.00;4.60;;;;;;;32.83;30.61;100538.53;5068870;28;20442;-66
2021/06/13 10:04:20;;;;;;;5.97;4.07;;;;;;;32.89;30.78;100535.00;5070281;28;20048;-66
2021/06/13 10:06:50;;;;;;;6.80;5.10;;;;;;;32.90;31.17;100535.84;5075608;28;20507;-66
2021/06/13 10:09:18;;;;;;;4.45;4.05;;;;;;;32.93;31.00;100532.72;5068479;28;20973;-67
2021/06/13 10:11:48;;;;;;;9.00;4.38;;;;;;;32.95;30.86;100527.91;5058756;28;20058;-66
2021/06/13 10:14:17;;;;;;;4.40;4.03;;;;;;;32.95;30.62;100528.75;5069587;28;20098;-65
2021/06/13 10:16:51;;;;;;;8.88;6.28;;;;;;;32.89;30.95;100524.22;5076546;28;20044;-67
2021/06/13 10:19:19;;;;;;;4.80;4.32;;;;;;;32.85;30.71;100523.78;5081703;28;20427;-68
2021/06/13 10:21:50;;;;;;;5.28;4.78;;;;;;;32.69;31.45;100523.44;5086200;28;20108;-73
2021/06/13 10:24:21;;;;;;;5.40;4.85;;;;;;;32.68;31.18;100521.78;5089324;28;20097;-74
2021/06/13 10:26:53;;;;;;;4.32;4.03;;;;;;;32.75;31.54;100525.28;5089224;28;20047;-73
2021/06/13 10:29:21;;;;;;;6.95;4.20;;;;;;;32.64;30.72;100521.38;5092315;28;20089;-69
2021/06/13 10:31:51;;;;;;;5.28;4.78;;;;;;;32.63;31.86;100525.13;5092719;28;20076;-64
2021/06/13 10:34:20;;;;;;;5.07;4.57;;;;;;;32.55;31.84;100517.31;5080660;28;20140;-66
2021/06/13 10:36:47;;;;;;;7.97;4.68;;;;;;;32.55;31.89;100520.00;5088201;28;20047;-65
2021/06/13 10:39:17;;;;;;;5.70;5.20;;;;;;;32.55;32.25;100514.59;5084225;28;20044;-66
2021/06/13 10:41:44;;;;;;;6.05;4.72;;;;;;;32.32;32.25;100510.47;5089665;28;20343;-65
2021/06/13 10:44:17;;;;;;;7.40;5.53;;;;;;;32.23;32.69;100519.88;5086904;28;20041;-64
2021/06/13 10:46:49;;;;;;;7.85;4.40;;;;;;;32.29;32.54;100513.63;5092515;28;20101;-64
2021/06/13 10:49:37;;;;;;;9.43;5.25;;;;;;;32.20;32.85;100517.59;5077279;28;20554;-63
2021/06/13 10:52:11;;;;;;;5.28;4.78;;;;;;;32.17;32.31;100514.47;5072962;28;20056;-63
2021/06/13 10:54:48;;;;;;;7.07;5.55;;;;;;;32.20;32.15;100505.97;5071094;28;20044;-62
2021/06/13 10:57:15;;;;;;;6.37;5.60;;;;;;;32.23;32.78;100508.25;5073521;28;20052;-64
2021/06/13 10:59:49;;;;;;;7.18;5.78;;;;;;;32.22;32.69;100512.78;5076557;28;20028;-63
2021/06/13 11:02:39;;;;;;;7.43;5.53;;;;;;;32.04;32.57;100502.69;5074906;28;20055;-63
2021/06/13 11:05:08;;;;;;;5.60;4.60;;;;;;;32.17;33.09;100499.13;5058216;28;20053;-65
2021/06/13 11:07:39;;;;;;;8.27;4.55;;;;;;;32.22;32.42;100503.88;5067489;28;20037;-65
2021/06/13 11:10:09;;;;;;;5.45;5.05;;;;;;;32.05;31.88;100500.81;5074506;28;20033;-64
2021/06/13 11:13:02;;;;;;;5.45;4.40;;;;;;;32.07;31.43;100499.59;5070563;28;20036;-64
2021/06/13 11:15:34;;;;;;;5.80;4.68;;;;;;;32.05;31.52;100496.25;5071706;28;20098;-62
2021/06/13 11:18:01;;;;;;;5.40;4.90;;;;;;;32.16;31.57;100497.47;5073103;28;20040;-62
2021/06/13 11:20:32;;;;;;;4.75;4.10;;;;;;;32.12;32.24;100498.09;5073550;28;20040;-63
2021/06/13 11:23:01;;;;;;;6.95;5.05;;;;;;;32.13;31.80;100499.78;5072153;28;20055;-63
2021/06/13 11:25:29;;;;;;;8.60;5.00;;;;;;;32.16;31.96;100494.75;5075466;28;20062;-62
2021/06/13 11:28:24;;;;;;;5.25;4.57;;;;;;;32.07;32.33;100498.75;5070706;28;20135;-64
2021/06/13 11:30:55;;;;;;;4.78;4.20;;;;;;;32.16;33.17;100494.75;5063583;28;20045;-63
2021/06/13 11:33:34;;;;;;;5.57;4.47;;;;;;;32.16;31.79;100486.69;5065031;28;20037;-65
2021/06/13 11:36:25;;;;;;;4.53;4.13;;;;;;;32.22;31.99;100485.81;5059419;28;20044;-64
2021/06/13 11:39:04;;;;;;;5.55;5.05;;;;;;;32.22;32.02;100485.81;5066442;28;20046;-64